createdAt,value
2019-03-03T00:01:08.975Z,10.45
2019-03-03T00:03:37.286Z,6.17
2019-03-03T00:06:05.533Z,8.85
2019-03-03T00:08:33.817Z,8.88
2019-03-03T00:11:02.193Z,10.15
2019-03-03T00:13:30.652Z,4.72
2019-03-03T00:15:58.855Z,11.00
2019-03-03T00:18:27.140Z,13.35
2019-03-03T00:20:55.431Z,6.10
2019-03-03T00:23:24.034Z,7.78
2019-03-03T00:25:53.373Z,7.33
2019-03-03T00:28:21.583Z,12.58
2019-03-03T00:30:49.850Z,9.60
2019-03-03T00:33:18.117Z,10.78
2019-03-03T00:35:46.370Z,13.28
2019-03-03T00:38:42.528Z,10.80
2019-03-03T00:41:32.713Z,9.80
2019-03-03T00:44:19.959Z,10.60
2019-03-03T00:47:07.552Z,15.90
2019-03-03T00:49:53.540Z,10.95
2019-03-03T00:52:32.741Z,12.63
2019-03-03T00:55:19.877Z,8.50
2019-03-03T00:58:07.025Z,18.02
2019-03-03T01:00:50.916Z,9.58
2019-03-03T01:03:25.455Z,13.85
2019-03-03T01:06:03.182Z,11.55
2019-03-03T01:08:57.445Z,7.67
2019-03-03T01:11:41.620Z,11.12
2019-03-03T01:14:31.551Z,7.55
2019-03-03T01:17:22.136Z,14.33
2019-03-03T01:22:45.768Z,7.08
2019-03-03T01:25:14.024Z,9.83
2019-03-03T01:27:42.381Z,6.72
2019-03-03T01:30:11.657Z,12.43
2019-03-03T01:32:39.941Z,10.55
2019-03-03T01:35:09.006Z,18.12
2019-03-03T01:37:37.267Z,11.88
2019-03-03T01:40:06.210Z,4.22
2019-03-03T01:42:34.643Z,8.10
2019-03-03T01:45:02.860Z,6.15
2019-03-03T01:47:31.138Z,7.65
2019-03-03T01:49:59.456Z,5.33
2019-03-03T01:52:27.688Z,9.08
2019-03-03T01:55:03.169Z,13.28
2019-03-03T01:57:31.344Z,9.45
2019-03-03T01:59:59.510Z,10.63
2019-03-03T02:02:28.142Z,9.73
2019-03-03T02:04:56.354Z,9.03
2019-03-03T02:07:24.578Z,11.10
2019-03-03T02:09:52.794Z,14.05
2019-03-03T02:12:20.962Z,12.88
2019-03-03T02:14:49.157Z,11.35
2019-03-03T02:17:17.452Z,13.03
2019-03-03T02:19:45.819Z,15.98
2019-03-03T02:22:14.565Z,12.23
2019-03-03T02:24:42.786Z,10.43
2019-03-03T02:27:11.043Z,10.40
2019-03-03T02:29:39.291Z,14.80
2019-03-03T02:32:07.590Z,9.68
2019-03-03T02:34:35.834Z,10.40
2019-03-03T02:37:04.625Z,6.92
2019-03-03T02:39:32.877Z,6.22
2019-03-03T02:42:01.757Z,10.58
2019-03-03T02:44:30.154Z,12.98
2019-03-03T02:46:58.382Z,5.00
2019-03-03T02:49:26.798Z,10.45
2019-03-03T02:51:55.035Z,8.60
2019-03-03T02:54:23.210Z,12.98
2019-03-03T02:56:51.716Z,7.40
2019-03-03T02:59:19.945Z,10.68
2019-03-03T03:01:52.685Z,11.93
2019-03-03T03:04:20.952Z,7.20
2019-03-03T03:07:08.734Z,9.98
2019-03-03T03:09:50.280Z,7.78
2019-03-03T03:12:30.555Z,7.58
2019-03-03T03:15:17.806Z,9.13
2019-03-03T03:17:57.167Z,11.75
2019-03-03T03:20:43.246Z,3.80
2019-03-03T03:23:33.602Z,5.72
2019-03-03T03:26:17.456Z,6.92
2019-03-03T03:29:04.784Z,12.78
2019-03-03T03:31:51.854Z,8.23
2019-03-03T03:34:34.929Z,13.93
2019-03-03T03:37:17.700Z,8.98
2019-03-03T03:40:04.814Z,2.60
2019-03-03T03:42:51.934Z,3.02
2019-03-03T03:45:37.863Z,3.90
2019-03-03T03:48:23.543Z,7.65
2019-03-03T03:51:10.921Z,6.65
2019-03-03T03:54:05.852Z,2.25
2019-03-03T03:56:53.107Z,7.47
2019-03-03T03:59:46.417Z,5.50
2019-03-03T04:02:33.570Z,8.83
2019-03-03T04:05:20.836Z,7.85
2019-03-03T04:08:08.201Z,13.08
2019-03-03T04:10:42.433Z,3.83
2019-03-03T04:13:29.559Z,8.53
2019-03-03T04:16:15.299Z,5.17
2019-03-03T04:19:05.128Z,6.20
2019-03-03T04:21:43.196Z,5.17
2019-03-03T04:24:39.746Z,3.33
2019-03-03T04:27:26.912Z,5.15
2019-03-03T04:30:17.013Z,7.50
2019-03-03T04:33:04.111Z,8.53
2019-03-03T04:35:44.227Z,4.53
2019-03-03T04:38:25.916Z,4.75
2019-03-03T04:41:25.021Z,4.45
2019-03-03T04:44:12.132Z,3.60
2019-03-03T04:47:11.473Z,6.72
2019-03-03T04:49:54.455Z,5.53
2019-03-03T04:52:41.699Z,8.75
2019-03-03T04:55:28.127Z,6.47
2019-03-03T04:58:13.978Z,8.23
2019-03-03T05:01:13.394Z,6.20
2019-03-03T05:04:00.545Z,11.00
2019-03-03T05:06:46.402Z,5.92
2019-03-03T05:09:27.557Z,4.55
2019-03-03T05:12:39.455Z,7.33
2019-03-03T05:15:32.992Z,4.15
2019-03-03T05:18:20.106Z,9.25
2019-03-03T05:20:50.164Z,5.62
2019-03-03T05:23:18.394Z,13.62
2019-03-03T05:25:46.606Z,6.03
2019-03-03T05:28:14.848Z,5.58
2019-03-03T05:30:43.158Z,11.83
2019-03-03T05:33:11.402Z,6.75
2019-03-03T05:35:39.693Z,3.02
2019-03-03T05:38:07.912Z,8.13
2019-03-03T05:40:36.161Z,9.58
2019-03-03T05:43:04.487Z,12.88
2019-03-03T05:45:32.809Z,10.40
2019-03-03T05:48:01.230Z,6.20
2019-03-03T05:50:29.513Z,3.70
2019-03-03T05:52:57.923Z,8.98
2019-03-03T05:55:26.093Z,9.63
2019-03-03T05:57:54.305Z,12.07
2019-03-03T06:00:22.773Z,5.55
2019-03-03T06:02:51.009Z,7.17
2019-03-03T06:05:19.379Z,6.25
2019-03-03T06:07:47.936Z,5.62
2019-03-03T06:10:16.173Z,6.58
2019-03-03T06:12:44.406Z,9.68
2019-03-03T06:15:13.569Z,5.17
2019-03-03T06:17:41.936Z,8.05
2019-03-03T06:20:11.111Z,3.75
2019-03-03T06:22:39.514Z,10.03
2019-03-03T06:25:07.936Z,5.60
2019-03-03T06:27:36.224Z,4.90
2019-03-03T06:30:05.554Z,8.10
2019-03-03T06:32:33.880Z,7.75
2019-03-03T06:35:02.164Z,3.72
2019-03-03T06:37:30.402Z,8.45
2019-03-03T06:39:58.770Z,6.53
2019-03-03T06:42:27.121Z,4.05
2019-03-03T06:44:55.480Z,7.05
2019-03-03T06:47:23.714Z,10.13
2019-03-03T06:49:51.891Z,4.55
2019-03-03T06:52:20.278Z,5.28
2019-03-03T06:54:48.501Z,3.25
2019-03-03T06:57:16.767Z,8.93
2019-03-03T06:59:44.987Z,12.93
2019-03-03T07:02:13.330Z,8.28
2019-03-03T07:04:41.605Z,4.67
2019-03-03T07:07:09.835Z,5.72
2019-03-03T07:09:38.181Z,4.08
2019-03-03T07:12:06.395Z,7.83
2019-03-03T07:14:34.818Z,8.50
2019-03-03T07:17:03.071Z,7.12
2019-03-03T07:19:31.267Z,6.78
2019-03-03T07:21:59.851Z,6.72
2019-03-03T07:24:28.148Z,8.50
2019-03-03T07:26:56.414Z,7.97
2019-03-03T07:29:24.723Z,12.73
2019-03-03T07:31:53.000Z,10.10
2019-03-03T07:34:21.372Z,2.37
2019-03-03T07:36:49.615Z,4.92
2019-03-03T07:39:36.890Z,6.50
2019-03-03T07:42:05.098Z,4.20
2019-03-03T07:44:33.364Z,9.50
2019-03-03T07:47:01.511Z,6.85
2019-03-03T07:49:29.841Z,10.43
2019-03-03T07:51:58.265Z,4.92
2019-03-03T07:54:26.536Z,9.88
2019-03-03T07:56:54.958Z,7.33
2019-03-03T07:59:23.284Z,8.68
2019-03-03T08:01:51.531Z,6.70
2019-03-03T08:04:19.866Z,7.78
2019-03-03T08:06:48.058Z,6.83
2019-03-03T08:09:16.590Z,6.80
2019-03-03T08:11:45.497Z,4.78
2019-03-03T08:14:13.700Z,7.78
2019-03-03T08:16:42.021Z,5.35
2019-03-03T08:19:10.326Z,7.62
2019-03-03T08:21:38.654Z,10.98
2019-03-03T08:24:07.030Z,7.92
2019-03-03T08:26:35.975Z,5.80
2019-03-03T08:29:04.299Z,9.43
2019-03-03T08:31:32.650Z,10.78
2019-03-03T08:34:00.917Z,7.65
2019-03-03T08:36:29.160Z,12.55
2019-03-03T08:38:57.404Z,6.62
2019-03-03T08:41:25.689Z,9.53
2019-03-03T08:44:00.875Z,4.30
2019-03-03T08:46:48.213Z,8.85
2019-03-03T08:49:27.861Z,8.58
2019-03-03T08:52:15.085Z,7.80
2019-03-03T08:55:08.649Z,3.30
2019-03-03T08:57:56.080Z,7.28
2019-03-03T09:00:34.285Z,9.30
2019-03-03T09:03:24.740Z,12.53
2019-03-03T09:06:00.770Z,13.32
2019-03-03T09:08:41.287Z,8.10
2019-03-03T09:14:10.414Z,8.35
2019-03-03T09:16:53.883Z,8.25
2019-03-03T09:19:39.725Z,7.60
2019-03-03T09:22:16.372Z,11.60
2019-03-03T09:25:03.666Z,12.10
2019-03-03T09:27:47.854Z,8.30
2019-03-03T09:30:29.130Z,9.93
2019-03-03T09:33:31.622Z,8.68
2019-03-03T09:36:17.222Z,5.17
2019-03-03T09:39:05.571Z,3.42
2019-03-03T09:41:44.388Z,6.87
2019-03-03T09:44:30.769Z,2.90
2019-03-03T09:47:18.049Z,7.33
2019-03-03T09:50:08.791Z,3.40
2019-03-03T09:52:56.049Z,8.68
2019-03-03T09:55:37.629Z,7.22
2019-03-03T09:58:37.073Z,6.60
2019-03-03T10:01:20.360Z,6.33
2019-03-03T10:04:08.085Z,3.15
2019-03-03T10:07:01.567Z,3.17
2019-03-03T10:09:49.258Z,6.00
2019-03-03T10:12:40.016Z,3.92
2019-03-03T10:15:19.536Z,4.35
2019-03-03T10:18:07.108Z,2.92
2019-03-03T10:20:53.995Z,4.78
2019-03-03T10:23:33.204Z,3.92
2019-03-03T10:26:20.011Z,5.70
2019-03-03T10:29:23.208Z,6.78
2019-03-03T10:32:16.570Z,3.83
2019-03-03T10:35:09.614Z,3.37
2019-03-03T10:37:57.118Z,1.50
2019-03-03T10:40:44.820Z,3.47
2019-03-03T10:43:37.404Z,3.98
2019-03-03T10:46:29.378Z,4.12
2019-03-03T10:49:23.495Z,2.60
2019-03-03T10:51:58.687Z,4.60
2019-03-03T10:54:45.437Z,9.25
2019-03-03T10:57:34.531Z,5.35
2019-03-03T11:00:20.708Z,5.15
2019-03-03T11:03:08.501Z,5.92
2019-03-03T11:06:08.701Z,4.12
2019-03-03T11:08:58.919Z,3.87
2019-03-03T11:11:45.149Z,3.02
2019-03-03T11:14:25.655Z,6.47
2019-03-03T11:20:03.011Z,2.45
2019-03-03T11:22:48.762Z,1.35
2019-03-03T11:25:36.209Z,6.17
2019-03-03T11:28:35.615Z,3.15
2019-03-03T11:31:23.226Z,2.77
2019-03-03T11:34:13.073Z,4.33
2019-03-03T11:37:00.482Z,3.47
2019-03-03T11:39:47.985Z,2.20
2019-03-03T11:42:28.121Z,1.85
2019-03-03T11:45:12.042Z,2.05
2019-03-03T11:48:04.207Z,2.42
2019-03-03T11:50:54.714Z,2.15
2019-03-03T11:53:50.035Z,1.45
2019-03-03T11:56:43.717Z,1.95
2019-03-03T11:59:29.344Z,2.35
2019-03-03T12:02:16.818Z,1.80
2019-03-03T12:05:11.534Z,2.85
2019-03-03T12:08:04.584Z,1.67
2019-03-03T12:10:38.901Z,1.35
2019-03-03T12:13:27.978Z,1.42
2019-03-03T12:16:19.707Z,2.00
2019-03-03T12:19:05.552Z,0.95
2019-03-03T12:21:51.788Z,4.83
2019-03-03T12:24:44.893Z,0.85
2019-03-03T12:27:28.127Z,2.25
2019-03-03T12:30:16.410Z,1.10
2019-03-03T12:33:02.240Z,2.05
2019-03-03T12:35:49.537Z,1.00
2019-03-03T12:38:35.509Z,1.05
2019-03-03T12:41:17.079Z,1.72
2019-03-03T12:44:05.605Z,1.47
2019-03-03T12:46:57.719Z,1.05
2019-03-03T12:49:51.272Z,1.22
2019-03-03T12:52:37.098Z,1.80
2019-03-03T12:55:27.522Z,2.83
2019-03-03T12:58:06.027Z,0.88
2019-03-03T13:00:40.625Z,1.20
2019-03-03T13:03:28.064Z,1.15
2019-03-03T13:06:24.047Z,1.25
2019-03-03T13:09:00.008Z,0.10
2019-03-03T13:11:46.462Z,1.67
2019-03-03T13:14:25.301Z,0.70
2019-03-03T13:17:19.579Z,2.42
2019-03-03T13:20:09.297Z,0.47
2019-03-03T13:22:55.748Z,0.60
2019-03-03T13:25:36.320Z,1.57
2019-03-03T13:31:10.713Z,0.80
2019-03-03T13:34:16.587Z,1.37
2019-03-03T13:36:53.077Z,2.33
2019-03-03T13:39:40.689Z,0.30
2019-03-03T13:42:28.428Z,0.88
2019-03-03T13:44:57.559Z,0.78
2019-03-03T13:47:26.518Z,1.77
2019-03-03T13:49:55.267Z,1.42
2019-03-03T13:52:24.329Z,1.15
2019-03-03T13:54:53.643Z,0.50
2019-03-03T13:57:23.405Z,1.57
2019-03-03T13:59:52.379Z,1.10
2019-03-03T14:02:21.596Z,1.90
2019-03-03T14:04:50.519Z,0.72
2019-03-03T14:07:19.276Z,4.58
2019-03-03T14:09:49.038Z,0.60
2019-03-03T14:12:18.389Z,2.87
2019-03-03T14:14:46.943Z,0.75
2019-03-03T14:17:15.459Z,0.78
2019-03-03T14:19:44.744Z,0.28
2019-03-03T14:22:14.624Z,0.68
2019-03-03T14:24:46.516Z,0.45
2019-03-03T14:27:15.631Z,1.20
2019-03-03T14:29:46.314Z,0.60
2019-03-03T14:32:15.453Z,0.53
2019-03-03T14:34:44.051Z,1.10
2019-03-03T14:37:12.622Z,1.92
2019-03-03T14:39:41.310Z,1.22
2019-03-03T14:42:11.120Z,1.00
2019-03-03T14:44:40.460Z,0.55
2019-03-03T14:47:09.757Z,2.70
2019-03-03T14:49:38.695Z,2.58
2019-03-03T14:52:08.291Z,0.35
2019-03-03T14:54:37.452Z,0.47
2019-03-03T14:57:06.072Z,0.80
2019-03-03T14:59:35.457Z,0.53
2019-03-03T15:02:05.203Z,1.85
2019-03-03T15:04:34.291Z,1.32
2019-03-03T15:07:03.370Z,1.72
2019-03-03T15:09:32.839Z,2.08
2019-03-03T15:12:01.931Z,1.40
2019-03-03T15:14:31.195Z,3.58
2019-03-03T15:17:00.286Z,0.98
2019-03-03T15:19:29.874Z,1.15
2019-03-03T15:21:59.037Z,1.53
2019-03-03T15:24:28.237Z,0.53
2019-03-03T15:26:57.416Z,0.82
2019-03-03T15:29:26.623Z,1.40
2019-03-03T15:31:55.607Z,1.35
2019-03-03T15:34:25.077Z,3.47
2019-03-03T15:36:54.356Z,0.60
2019-03-03T15:39:23.434Z,0.25
2019-03-03T15:41:53.202Z,1.05
2019-03-03T15:44:22.165Z,1.95
2019-03-03T15:46:51.544Z,1.10
2019-03-03T15:49:21.196Z,2.58
2019-03-03T15:51:51.222Z,0.50
2019-03-03T15:54:19.602Z,0.78
2019-03-03T15:56:49.559Z,1.17
2019-03-03T15:59:19.511Z,0.85
2019-03-03T16:01:48.926Z,2.08
2019-03-03T16:04:17.818Z,1.07
2019-03-03T16:06:47.457Z,0.90
2019-03-03T16:09:17.323Z,2.27
2019-03-03T16:11:46.453Z,1.55
2019-03-03T16:14:18.413Z,0.78
2019-03-03T16:16:48.323Z,1.32
2019-03-03T16:19:18.508Z,0.57
2019-03-03T16:21:49.485Z,1.10
2019-03-03T16:24:21.029Z,1.22
2019-03-03T16:29:19.335Z,6.47
2019-03-03T16:31:48.406Z,4.40
2019-03-03T16:34:18.071Z,2.10
2019-03-03T16:36:47.327Z,1.47
2019-03-03T16:39:17.091Z,1.37
2019-03-03T16:41:48.023Z,3.45
2019-03-03T16:44:17.542Z,1.25
2019-03-03T16:46:47.723Z,1.33
2019-03-03T16:49:17.322Z,1.92
2019-03-03T16:51:47.491Z,2.02
2019-03-03T16:54:17.774Z,3.25
2019-03-03T16:56:47.157Z,2.25
2019-03-03T16:59:16.470Z,2.55
2019-03-03T17:01:51.733Z,2.65
2019-03-03T17:04:21.131Z,1.35
2019-03-03T17:06:51.867Z,3.75
2019-03-03T17:09:21.908Z,3.05
2019-03-03T17:11:50.991Z,2.02
2019-03-03T17:14:23.392Z,3.08
2019-03-03T17:16:54.552Z,3.33
2019-03-03T17:19:23.741Z,1.82
2019-03-03T17:21:53.353Z,2.95
2019-03-03T17:24:23.074Z,2.55
2019-03-03T17:26:52.500Z,3.40
2019-03-03T17:29:22.571Z,1.75
2019-03-03T17:31:52.173Z,1.90
2019-03-03T17:34:21.489Z,1.42
2019-03-03T17:36:50.937Z,2.12
2019-03-03T17:39:20.741Z,2.10
2019-03-03T17:41:50.687Z,5.50
2019-03-03T17:44:20.481Z,0.90
2019-03-03T17:46:52.907Z,5.55
2019-03-03T17:49:23.071Z,1.20
2019-03-03T17:51:52.910Z,2.20
2019-03-03T17:54:27.449Z,4.92
2019-03-03T17:56:56.608Z,3.83
2019-03-03T17:59:25.925Z,1.02
2019-03-03T18:01:55.322Z,2.75
2019-03-03T18:04:25.083Z,5.05
2019-03-03T18:06:55.231Z,1.98
2019-03-03T18:09:25.244Z,3.90
2019-03-03T18:11:54.606Z,3.35
2019-03-03T18:14:24.818Z,3.58
2019-03-03T18:16:55.047Z,2.45
2019-03-03T18:19:24.375Z,5.33
2019-03-03T18:21:54.514Z,3.75
2019-03-03T18:24:23.530Z,5.42
2019-03-03T18:26:53.002Z,4.55
2019-03-03T18:29:31.850Z,6.37
2019-03-03T18:32:02.702Z,3.92
2019-03-03T18:34:33.528Z,4.65
2019-03-03T18:37:02.838Z,3.95
2019-03-03T18:39:32.438Z,7.17
2019-03-03T18:42:01.616Z,4.27
2019-03-03T18:44:31.118Z,7.28
2019-03-03T18:47:00.585Z,4.42
2019-03-03T18:49:30.185Z,5.53
2019-03-03T18:51:59.484Z,3.47
2019-03-03T18:54:29.714Z,7.25
2019-03-03T18:56:59.967Z,9.23
2019-03-03T18:59:30.020Z,4.58
2019-03-03T19:01:59.390Z,2.83
2019-03-03T19:04:28.347Z,7.10
2019-03-03T19:06:57.711Z,4.37
2019-03-03T19:09:30.387Z,3.20
2019-03-03T19:12:00.353Z,9.68
2019-03-03T19:14:30.699Z,10.05
2019-03-03T19:19:28.616Z,6.78
2019-03-03T19:21:58.137Z,8.75
2019-03-03T19:24:28.107Z,4.28
2019-03-03T19:26:57.765Z,5.47
2019-03-03T19:29:27.705Z,11.93
2019-03-03T19:32:06.174Z,4.65
2019-03-03T19:34:36.220Z,8.13
2019-03-03T19:37:08.256Z,6.75
2019-03-03T19:39:38.255Z,7.30
2019-03-03T19:42:07.865Z,11.57
2019-03-03T19:44:37.009Z,6.40
2019-03-03T19:47:06.820Z,5.28
2019-03-03T19:49:36.821Z,9.78
2019-03-03T19:52:06.621Z,6.22
2019-03-03T19:54:36.008Z,3.15
2019-03-03T19:57:06.124Z,6.50
2019-03-03T19:59:35.879Z,6.25
2019-03-03T20:02:05.227Z,3.67
2019-03-03T20:04:34.898Z,6.62
2019-03-03T20:07:04.796Z,14.40
2019-03-03T20:09:34.422Z,11.78
2019-03-03T20:12:04.609Z,7.83
2019-03-03T20:14:34.478Z,7.62
2019-03-03T20:17:04.782Z,7.78
2019-03-03T20:19:35.705Z,5.12
2019-03-03T20:22:05.675Z,7.97
2019-03-03T20:24:35.286Z,7.03
2019-03-03T20:27:05.054Z,6.50
2019-03-03T20:29:33.714Z,9.83
2019-03-03T20:32:03.401Z,8.58
2019-03-03T20:34:32.754Z,6.62
2019-03-03T20:37:02.389Z,6.90
2019-03-03T20:39:31.849Z,5.57
2019-03-03T20:42:01.175Z,5.50
2019-03-03T20:44:31.090Z,9.15
2019-03-03T20:47:00.812Z,7.22
2019-03-03T20:49:30.136Z,4.30
2019-03-03T20:52:00.240Z,8.83
2019-03-03T20:54:30.292Z,3.00
2019-03-03T20:57:00.287Z,9.80
2019-03-03T20:59:32.011Z,12.33
2019-03-03T21:07:11.140Z,9.63
2019-03-03T21:09:40.444Z,6.83
2019-03-03T21:12:09.703Z,10.35
2019-03-03T21:14:39.699Z,7.08
2019-03-03T21:17:08.864Z,7.10
2019-03-03T21:19:38.184Z,8.50
2019-03-03T21:22:07.267Z,6.65
2019-03-03T21:24:35.905Z,9.70
2019-03-03T21:27:04.798Z,6.85
2019-03-03T21:29:33.549Z,4.50
2019-03-03T21:32:01.977Z,6.75
2019-03-03T21:34:30.567Z,6.87
2019-03-03T21:36:59.365Z,8.43
2019-03-03T21:39:28.754Z,3.62
2019-03-03T21:41:57.517Z,10.60
2019-03-03T21:44:25.998Z,3.83
2019-03-03T21:46:55.353Z,5.25
2019-03-03T21:49:24.033Z,4.85
2019-03-03T21:51:52.282Z,7.40
2019-03-03T21:54:20.707Z,5.28
2019-03-03T21:56:49.400Z,7.30
2019-03-03T21:59:18.451Z,7.53
2019-03-03T22:01:46.849Z,8.40
2019-03-03T22:04:15.349Z,7.05
2019-03-03T22:06:44.565Z,7.45
2019-03-03T22:09:13.622Z,4.55
2019-03-03T22:11:42.155Z,10.70
2019-03-03T22:14:11.228Z,5.33
2019-03-03T22:16:40.386Z,5.80
2019-03-03T22:19:08.922Z,3.45
2019-03-03T22:21:37.421Z,8.45
2019-03-03T22:24:06.144Z,4.15
2019-03-03T22:26:34.668Z,4.87
2019-03-03T22:29:03.002Z,7.80
2019-03-03T22:31:32.096Z,3.10
2019-03-03T22:34:00.963Z,5.33
2019-03-03T22:36:29.550Z,3.12
2019-03-03T22:38:58.007Z,3.72
2019-03-03T22:41:26.657Z,5.85
2019-03-03T22:43:55.033Z,5.60
2019-03-03T22:46:23.694Z,4.90
2019-03-03T22:48:52.376Z,2.80
2019-03-03T22:54:13.347Z,4.22
2019-03-03T22:56:41.603Z,4.53
2019-03-03T22:59:09.914Z,3.15
2019-03-03T23:01:41.537Z,4.90
2019-03-03T23:04:32.557Z,4.60
2019-03-03T23:07:31.080Z,3.75
2019-03-03T23:10:21.056Z,3.37
2019-03-03T23:13:04.411Z,2.60
2019-03-03T23:15:45.921Z,1.67
2019-03-03T23:19:13.003Z,5.90
2019-03-03T23:21:59.201Z,4.87
2019-03-03T23:24:54.596Z,4.33
2019-03-03T23:27:22.995Z,2.22
2019-03-03T23:29:51.376Z,2.72
2019-03-03T23:32:19.646Z,3.30
2019-03-03T23:34:47.946Z,1.60
2019-03-03T23:37:16.305Z,2.12
2019-03-03T23:39:44.614Z,4.17
2019-03-03T23:42:12.774Z,3.27
2019-03-03T23:44:41.277Z,2.87
2019-03-03T23:47:09.600Z,4.15
2019-03-03T23:49:38.071Z,2.60
2019-03-03T23:52:06.246Z,2.80
2019-03-03T23:54:34.370Z,1.35
2019-03-03T23:57:03.132Z,3.12
2019-03-03T23:59:31.382Z,1.80
